Airfield :
LOGIN :

Register | Disclaimer

   EN    FR    IT 

 










Legend :    VFR   Marginal VFR   IFR   Intensive IFR   Very Intensive IFR
Visi :
Ceiling :
>= 8 km
>= 3000ft
5 to 8 km
1000 to 3000 ft
1500m to 5 km
500 to 1000 ft
800 to 1500m
200 to 500 ft
< 800m
< 200 ft
Symbols :   Thunderstorms  Fog  Heavy snow  Heavy precipitations  Wind > 20 kt
SIGMETs :     Misc.  Thunderstorms  Icing  Turbulence  Mountain Waves  Volcanic Ashes







- Airport Elevation : 580 ft
- Download approach charts


LFOA - Avord

CURRENT METAR :
  • 231430Z AUTO 27010KT 230V320 9999 SCT029 SCT035 22/16 Q1022 NOSIG

EXPIRED METARs :
  • 231400Z AUTO 28010KT 240V310 9999 BKN029 BKN036 23/17 Q1022 NOSIG
  • 231330Z AUTO 25009KT 220V310 9999 BKN029 BKN035 23/17 Q1023 NOSIG
  • 231300Z AUTO 25009KT 220V300 9999 SCT024 BKN029 22/17 Q1022 NOSIG
  • 231230Z AUTO 26010KT 9999 SCT023 BKN028 22/17 Q1023 NOSIG
  • 231200Z AUTO 25010KT 210V280 9999 BKN022 BKN027 21/16 Q1023 NOSIG

TAF TAF LFOA
Valid from the 23 at 15:00 until the 24 at 15:00 UTC


231400Z 2315/2415 28010KT CAVOK
BECMG 2321/2324 02008KT
No reported NOTAMs for that airfield.



MET'MAP, your aeronautical weather chart ! - Copyright ORBIFLY December 2007 - Disclaimer

ORBIFLY MET'MAP TEAM :

Programming & Development : Alexandra Zaïnal
Concept & Development : Baudouin d'Aumeries
Co-Development & Prog : Marc-Olivier Méhu
Technical & hardware support : Manuel Goepfert

Contact : metmap@orbifly.com




SOURCES & CREDITS :

   NOAA